sensor_id;sensor_type;location;lat;lon;timestamp;pressure;altitude;pressure_sealevel;temperature;humidity
59063;BME280;44851;45.648;9.004;2024-01-06T00:00:43;97562.50;;;5.55;81.61
59063;BME280;44851;45.648;9.004;2024-01-06T00:03:10;97574.06;;;5.51;81.71
59063;BME280;44851;45.648;9.004;2024-01-06T00:05:36;97565.06;;;5.55;81.32
59063;BME280;44851;45.648;9.004;2024-01-06T00:08:01;97559.75;;;5.56;81.22
59063;BME280;44851;45.648;9.004;2024-01-06T00:10:27;97556.06;;;5.59;80.96
59063;BME280;44851;45.648;9.004;2024-01-06T00:12:52;97564.34;;;5.62;81.01
59063;BME280;44851;45.648;9.004;2024-01-06T00:15:18;97561.75;;;5.62;81.61
59063;BME280;44851;45.648;9.004;2024-01-06T00:17:43;97566.78;;;5.64;81.41
59063;BME280;44851;45.648;9.004;2024-01-06T00:20:09;97565.31;;;5.61;81.07
59063;BME280;44851;45.648;9.004;2024-01-06T00:22:35;97567.91;;;5.61;81.29
59063;BME280;44851;45.648;9.004;2024-01-06T00:25:00;97582.00;;;5.67;81.16
59063;BME280;44851;45.648;9.004;2024-01-06T00:27:27;97577.00;;;5.66;81.41
59063;BME280;44851;45.648;9.004;2024-01-06T00:29:52;97570.19;;;5.64;80.63
59063;BME280;44851;45.648;9.004;2024-01-06T00:32:18;97569.38;;;5.64;80.58
59063;BME280;44851;45.648;9.004;2024-01-06T00:34:43;97582.44;;;5.62;81.24
59063;BME280;44851;45.648;9.004;2024-01-06T00:37:08;97582.16;;;5.66;80.99
59063;BME280;44851;45.648;9.004;2024-01-06T00:39:34;97577.00;;;5.66;80.83
59063;BME280;44851;45.648;9.004;2024-01-06T00:41:59;97581.34;;;5.65;80.68
59063;BME280;44851;45.648;9.004;2024-01-06T00:44:24;97574.69;;;5.62;81.31
59063;BME280;44851;45.648;9.004;2024-01-06T00:46:50;97575.25;;;5.56;81.24
59063;BME280;44851;45.648;9.004;2024-01-06T00:49:15;97568.16;;;5.58;81.49
59063;BME280;44851;45.648;9.004;2024-01-06T00:51:41;97568.47;;;5.55;81.42
59063;BME280;44851;45.648;9.004;2024-01-06T00:54:06;97567.94;;;5.52;81.08
59063;BME280;44851;45.648;9.004;2024-01-06T00:56:31;97574.97;;;5.59;81.29
59063;BME280;44851;45.648;9.004;2024-01-06T00:58:57;97565.88;;;5.55;81.68
59063;BME280;44851;45.648;9.004;2024-01-06T01:01:22;97567.13;;;5.51;81.62
59063;BME280;44851;45.648;9.004;2024-01-06T01:03:47;97571.72;;;5.57;81.20
59063;BME280;44851;45.648;9.004;2024-01-06T01:06:13;97571.44;;;5.60;81.08
59063;BME280;44851;45.648;9.004;2024-01-06T01:08:38;97566.94;;;5.62;81.53
59063;BME280;44851;45.648;9.004;2024-01-06T01:11:03;97557.16;;;5.56;81.34
59063;BME280;44851;45.648;9.004;2024-01-06T01:13:29;97555.25;;;5.58;81.37
59063;BME280;44851;45.648;9.004;2024-01-06T01:15:54;97549.41;;;5.56;81.22
59063;BME280;44851;45.648;9.004;2024-01-06T01:18:19;97543.19;;;5.49;81.19
59063;BME280;44851;45.648;9.004;2024-01-06T01:20:45;97541.00;;;5.54;81.34
59063;BME280;44851;45.648;9.004;2024-01-06T01:23:10;97548.91;;;5.43;82.49
59063;BME280;44851;45.648;9.004;2024-01-06T01:25:35;97542.00;;;5.44;81.75
59063;BME280;44851;45.648;9.004;2024-01-06T01:28:01;97528.25;;;5.43;80.83
59063;BME280;44851;45.648;9.004;2024-01-06T01:30:27;97522.88;;;5.27;82.70
59063;BME280;44851;45.648;9.004;2024-01-06T01:32:52;97521.22;;;5.35;82.01
59063;BME280;44851;45.648;9.004;2024-01-06T01:35:18;97525.56;;;5.35;82.07
59063;BME280;44851;45.648;9.004;2024-01-06T01:37:43;97529.16;;;5.24;83.23
59063;BME280;44851;45.648;9.004;2024-01-06T01:40:09;97524.47;;;5.37;82.11
59063;BME280;44851;45.648;9.004;2024-01-06T01:42:34;97524.63;;;5.36;82.61
59063;BME280;44851;45.648;9.004;2024-01-06T01:45:00;97532.66;;;5.33;82.45
59063;BME280;44851;45.648;9.004;2024-01-06T01:47:26;97527.19;;;5.36;82.81
59063;BME280;44851;45.648;9.004;2024-01-06T01:49:52;97519.88;;;5.31;82.57
59063;BME280;44851;45.648;9.004;2024-01-06T01:52:19;97529.63;;;5.37;82.53
59063;BME280;44851;45.648;9.004;2024-01-06T01:54:45;97514.47;;;5.25;82.83
59063;BME280;44851;45.648;9.004;2024-01-06T01:57:12;97526.94;;;5.39;82.46
59063;BME280;44851;45.648;9.004;2024-01-06T01:59:39;97523.38;;;5.40;82.06
59063;BME280;44851;45.648;9.004;2024-01-06T02:02:04;97521.03;;;5.47;82.21
59063;BME280;44851;45.648;9.004;2024-01-06T02:04:30;97517.91;;;5.43;82.78
59063;BME280;44851;45.648;9.004;2024-01-06T02:06:55;97520.41;;;5.35;82.36
59063;BME280;44851;45.648;9.004;2024-01-06T02:09:21;97513.69;;;5.42;83.15
59063;BME280;44851;45.648;9.004;2024-01-06T02:11:48;97507.19;;;5.38;82.77
59063;BME280;44851;45.648;9.004;2024-01-06T02:14:13;97502.41;;;5.43;82.85
59063;BME280;44851;45.648;9.004;2024-01-06T02:16:39;97504.34;;;5.41;82.63
59063;BME280;44851;45.648;9.004;2024-01-06T02:19:05;97496.31;;;5.44;82.40
59063;BME280;44851;45.648;9.004;2024-01-06T02:21:33;97495.63;;;5.42;83.27
59063;BME280;44851;45.648;9.004;2024-01-06T02:24:00;97495.66;;;5.32;82.82
59063;BME280;44851;45.648;9.004;2024-01-06T02:26:25;97492.38;;;5.40;83.26
59063;BME280;44851;45.648;9.004;2024-01-06T02:28:50;97485.00;;;5.45;83.01
59063;BME280;44851;45.648;9.004;2024-01-06T02:31:16;97486.47;;;5.48;82.95
59063;BME280;44851;45.648;9.004;2024-01-06T02:33:41;97479.84;;;5.45;82.72
59063;BME280;44851;45.648;9.004;2024-01-06T02:36:07;97483.66;;;5.41;82.72
59063;BME280;44851;45.648;9.004;2024-01-06T02:38:32;97486.34;;;5.49;82.78
59063;BME280;44851;45.648;9.004;2024-01-06T02:40:57;97478.88;;;5.46;82.69
59063;BME280;44851;45.648;9.004;2024-01-06T02:43:23;97473.88;;;5.45;82.81
59063;BME280;44851;45.648;9.004;2024-01-06T02:45:48;97479.25;;;5.51;82.40
59063;BME280;44851;45.648;9.004;2024-01-06T02:48:14;97477.06;;;5.56;82.53
59063;BME280;44851;45.648;9.004;2024-01-06T02:50:40;97477.88;;;5.57;82.68
59063;BME280;44851;45.648;9.004;2024-01-06T02:53:05;97466.19;;;5.53;82.73
59063;BME280;44851;45.648;9.004;2024-01-06T02:55:30;97472.47;;;5.50;82.60
59063;BME280;44851;45.648;9.004;2024-01-06T02:57:56;97479.53;;;5.48;81.99
59063;BME280;44851;45.648;9.004;2024-01-06T03:00:21;97478.28;;;5.52;82.33
59063;BME280;44851;45.648;9.004;2024-01-06T03:02:46;97466.72;;;5.56;82.25
59063;BME280;44851;45.648;9.004;2024-01-06T03:05:12;97462.78;;;5.52;82.44
59063;BME280;44851;45.648;9.004;2024-01-06T03:07:37;97461.81;;;5.53;82.17
59063;BME280;44851;45.648;9.004;2024-01-06T03:10:03;97458.31;;;5.54;83.16
59063;BME280;44851;45.648;9.004;2024-01-06T03:12:28;97462.34;;;5.57;82.31
59063;BME280;44851;45.648;9.004;2024-01-06T03:14:53;97459.34;;;5.61;81.95
59063;BME280;44851;45.648;9.004;2024-01-06T03:17:19;97452.84;;;5.57;81.54
59063;BME280;44851;45.648;9.004;2024-01-06T03:19:44;97460.97;;;5.62;81.61
59063;BME280;44851;45.648;9.004;2024-01-06T03:22:10;97447.06;;;5.63;82.75
59063;BME280;44851;45.648;9.004;2024-01-06T03:24:35;97447.38;;;5.60;81.83
59063;BME280;44851;45.648;9.004;2024-01-06T03:27:00;97449.53;;;5.65;82.32
59063;BME280;44851;45.648;9.004;2024-01-06T03:29:26;97448.63;;;5.56;82.12
59063;BME280;44851;45.648;9.004;2024-01-06T03:31:51;97438.06;;;5.68;82.20
59063;BME280;44851;45.648;9.004;2024-01-06T03:34:16;97441.41;;;5.60;81.90
59063;BME280;44851;45.648;9.004;2024-01-06T03:36:42;97448.19;;;5.61;82.09
59063;BME280;44851;45.648;9.004;2024-01-06T03:39:07;97430.91;;;5.61;82.30
59063;BME280;44851;45.648;9.004;2024-01-06T03:41:33;97432.25;;;5.66;81.91
59063;BME280;44851;45.648;9.004;2024-01-06T03:43:58;97426.72;;;5.60;81.81
59063;BME280;44851;45.648;9.004;2024-01-06T03:46:24;97423.44;;;5.58;82.08
59063;BME280;44851;45.648;9.004;2024-01-06T03:48:49;97430.97;;;5.70;82.42
59063;BME280;44851;45.648;9.004;2024-01-06T03:51:15;97426.13;;;5.67;81.95
59063;BME280;44851;45.648;9.004;2024-01-06T03:53:40;97417.13;;;5.71;81.97
59063;BME280;44851;45.648;9.004;2024-01-06T03:56:06;97418.84;;;5.70;82.50
59063;BME280;44851;45.648;9.004;2024-01-06T03:58:31;97411.25;;;5.69;82.03
59063;BME280;44851;45.648;9.004;2024-01-06T04:00:57;97418.72;;;5.72;81.99
59063;BME280;44851;45.648;9.004;2024-01-06T04:03:22;97422.28;;;5.71;81.48
59063;BME280;44851;45.648;9.004;2024-01-06T04:05:47;97418.72;;;5.72;81.58
59063;BME280;44851;45.648;9.004;2024-01-06T04:08:13;97410.53;;;5.76;81.22
59063;BME280;44851;45.648;9.004;2024-01-06T04:10:38;97404.03;;;5.72;81.32
59063;BME280;44851;45.648;9.004;2024-01-06T04:13:05;97394.22;;;5.76;81.63
59063;BME280;44851;45.648;9.004;2024-01-06T04:15:30;97395.97;;;5.75;81.54
59063;BME280;44851;45.648;9.004;2024-01-06T04:17:56;97405.59;;;5.83;81.66
59063;BME280;44851;45.648;9.004;2024-01-06T04:20:21;97409.13;;;5.82;81.71
59063;BME280;44851;45.648;9.004;2024-01-06T04:22:46;97403.66;;;5.85;81.96
59063;BME280;44851;45.648;9.004;2024-01-06T04:25:12;97401.78;;;5.87;81.08
59063;BME280;44851;45.648;9.004;2024-01-06T04:27:37;97404.03;;;5.90;81.75
59063;BME280;44851;45.648;9.004;2024-01-06T04:30:03;97404.91;;;5.81;81.92
59063;BME280;44851;45.648;9.004;2024-01-06T04:32:28;97404.47;;;5.85;81.88
59063;BME280;44851;45.648;9.004;2024-01-06T04:34:54;97401.78;;;5.87;81.31
59063;BME280;44851;45.648;9.004;2024-01-06T04:37:19;97399.28;;;5.85;80.96
59063;BME280;44851;45.648;9.004;2024-01-06T04:39:44;97398.22;;;5.88;81.70
59063;BME280;44851;45.648;9.004;2024-01-06T04:42:10;97392.75;;;5.91;81.90
59063;BME280;44851;45.648;9.004;2024-01-06T04:44:35;97395.69;;;5.96;81.92
59063;BME280;44851;45.648;9.004;2024-01-06T04:47:00;97388.69;;;5.88;81.35
59063;BME280;44851;45.648;9.004;2024-01-06T04:49:25;97390.16;;;5.91;81.44
59063;BME280;44851;45.648;9.004;2024-01-06T04:51:51;97396.00;;;5.93;81.89
59063;BME280;44851;45.648;9.004;2024-01-06T04:54:16;97395.69;;;5.96;82.07
59063;BME280;44851;45.648;9.004;2024-01-06T04:56:42;97388.91;;;5.95;81.87
59063;BME280;44851;45.648;9.004;2024-01-06T04:59:07;97392.28;;;5.96;81.58
59063;BME280;44851;45.648;9.004;2024-01-06T05:01:32;97387.44;;;5.93;81.28
59063;BME280;44851;45.648;9.004;2024-01-06T05:03:58;97396.38;;;5.98;81.32
59063;BME280;44851;45.648;9.004;2024-01-06T05:06:24;97390.06;;;6.01;81.73
59063;BME280;44851;45.648;9.004;2024-01-06T05:08:49;97386.16;;;5.97;81.97
59063;BME280;44851;45.648;9.004;2024-01-06T05:11:15;97393.25;;;5.95;81.87
59063;BME280;44851;45.648;9.004;2024-01-06T05:13:41;97387.56;;;5.91;81.75
59063;BME280;44851;45.648;9.004;2024-01-06T05:16:07;97384.41;;;5.97;82.00
59063;BME280;44851;45.648;9.004;2024-01-06T05:18:34;97378.56;;;5.95;82.49
59063;BME280;44851;45.648;9.004;2024-01-06T05:20:59;97377.75;;;5.95;81.96
59063;BME280;44851;45.648;9.004;2024-01-06T05:23:25;97376.94;;;5.94;82.25
59063;BME280;44851;45.648;9.004;2024-01-06T05:25:50;97374.19;;;5.96;82.18
59063;BME280;44851;45.648;9.004;2024-01-06T05:28:15;97372.28;;;5.98;81.95
59063;BME280;44851;45.648;9.004;2024-01-06T05:30:41;97367.56;;;5.93;82.16
59063;BME280;44851;45.648;9.004;2024-01-06T05:33:09;97371.75;;;5.94;82.05
59063;BME280;44851;45.648;9.004;2024-01-06T05:35:34;97375.31;;;5.93;82.35
59063;BME280;44851;45.648;9.004;2024-01-06T05:38:00;97374.50;;;5.93;82.19
59063;BME280;44851;45.648;9.004;2024-01-06T05:40:26;97365.19;;;6.00;82.09
59063;BME280;44851;45.648;9.004;2024-01-06T05:42:51;97366.31;;;5.97;81.81
59063;BME280;44851;45.648;9.004;2024-01-06T05:45:20;97368.22;;;5.95;82.05
59063;BME280;44851;45.648;9.004;2024-01-06T05:47:46;97366.59;;;5.94;82.35
59063;BME280;44851;45.648;9.004;2024-01-06T05:50:11;97362.28;;;5.85;81.72
59063;BME280;44851;45.648;9.004;2024-01-06T05:52:37;97364.78;;;5.86;81.61
59063;BME280;44851;45.648;9.004;2024-01-06T05:55:02;97372.72;;;5.93;82.29
59063;BME280;44851;45.648;9.004;2024-01-06T05:57:27;97368.22;;;5.95;82.27
59063;BME280;44851;45.648;9.004;2024-01-06T05:59:53;97361.41;;;5.94;82.11
59063;BME280;44851;45.648;9.004;2024-01-06T06:02:18;97362.22;;;5.95;82.05
59063;BME280;44851;45.648;9.004;2024-01-06T06:04:44;97355.28;;;5.95;82.37
59063;BME280;44851;45.648;9.004;2024-01-06T06:07:09;97360.91;;;5.90;82.12
59063;BME280;44851;45.648;9.004;2024-01-06T06:09:34;97367.84;;;5.90;81.77
59063;BME280;44851;45.648;9.004;2024-01-06T06:12:00;97370.44;;;5.90;81.93
59063;BME280;44851;45.648;9.004;2024-01-06T06:14:25;97372.06;;;5.91;82.08
59063;BME280;44851;45.648;9.004;2024-01-06T06:16:50;97369.34;;;5.93;82.03
59063;BME280;44851;45.648;9.004;2024-01-06T06:19:16;97375.47;;;5.92;82.08
59063;BME280;44851;45.648;9.004;2024-01-06T06:21:43;97369.63;;;5.89;81.77
59063;BME280;44851;45.648;9.004;2024-01-06T06:24:09;97374.00;;;5.89;82.00
59063;BME280;44851;45.648;9.004;2024-01-06T06:26:34;97380.78;;;5.90;81.78
59063;BME280;44851;45.648;9.004;2024-01-06T06:29:00;97385.94;;;5.90;81.82
59063;BME280;44851;45.648;9.004;2024-01-06T06:31:26;97384.84;;;5.93;82.22
59063;BME280;44851;45.648;9.004;2024-01-06T06:33:51;97386.25;;;5.87;81.86
59063;BME280;44851;45.648;9.004;2024-01-06T06:36:17;97382.03;;;5.86;81.92
59063;BME280;44851;45.648;9.004;2024-01-06T06:38:42;97374.28;;;5.86;81.79
59063;BME280;44851;45.648;9.004;2024-01-06T06:41:07;97377.69;;;5.86;82.47
59063;BME280;44851;45.648;9.004;2024-01-06T06:43:33;97389.50;;;5.89;82.22
59063;BME280;44851;45.648;9.004;2024-01-06T06:45:58;97381.09;;;5.87;81.73
59063;BME280;44851;45.648;9.004;2024-01-06T06:48:24;97380.78;;;5.90;82.33
59063;BME280;44851;45.648;9.004;2024-01-06T06:50:49;97371.69;;;5.86;81.71
59063;BME280;44851;45.648;9.004;2024-01-06T06:53:14;97383.53;;;5.88;82.28
59063;BME280;44851;45.648;9.004;2024-01-06T06:55:40;97377.53;;;5.88;81.86
59063;BME280;44851;45.648;9.004;2024-01-06T06:58:06;97383.25;;;5.92;82.25
59063;BME280;44851;45.648;9.004;2024-01-06T07:00:31;97379.97;;;5.89;81.70
59063;BME280;44851;45.648;9.004;2024-01-06T07:02:57;97394.03;;;5.87;81.70
59063;BME280;44851;45.648;9.004;2024-01-06T07:05:22;97394.69;;;5.89;81.98
59063;BME280;44851;45.648;9.004;2024-01-06T07:07:48;97391.97;;;5.81;81.62
59063;BME280;44851;45.648;9.004;2024-01-06T07:10:13;97396.84;;;5.84;81.82
59063;BME280;44851;45.648;9.004;2024-01-06T07:12:39;97406.84;;;5.79;81.43
59063;BME280;44851;45.648;9.004;2024-01-06T07:15:04;97399.72;;;5.81;81.80
59063;BME280;44851;45.648;9.004;2024-01-06T07:17:30;97409.41;;;5.79;82.19
59063;BME280;44851;45.648;9.004;2024-01-06T07:19:57;97407.19;;;5.84;82.31
59063;BME280;44851;45.648;9.004;2024-01-06T07:22:25;97405.59;;;5.83;82.14
59063;BME280;44851;45.648;9.004;2024-01-06T07:24:50;97405.44;;;5.84;81.91
59063;BME280;44851;45.648;9.004;2024-01-06T07:27:16;97408.56;;;5.88;82.11
59063;BME280;44851;45.648;9.004;2024-01-06T07:29:42;97409.38;;;5.88;81.89
59063;BME280;44851;45.648;9.004;2024-01-06T07:32:07;97407.88;;;5.86;82.27
59063;BME280;44851;45.648;9.004;2024-01-06T07:34:32;97400.97;;;5.86;81.68
59063;BME280;44851;45.648;9.004;2024-01-06T07:37:01;97408.00;;;5.84;81.78
59063;BME280;44851;45.648;9.004;2024-01-06T07:39:26;97412.38;;;5.84;81.68
59063;BME280;44851;45.648;9.004;2024-01-06T07:41:52;97405.00;;;5.89;82.42
59063;BME280;44851;45.648;9.004;2024-01-06T07:44:17;97410.47;;;5.86;81.97
59063;BME280;44851;45.648;9.004;2024-01-06T07:46:48;97416.16;;;5.89;81.89
59063;BME280;44851;45.648;9.004;2024-01-06T07:49:13;97415.06;;;5.92;81.93
59063;BME280;44851;45.648;9.004;2024-01-06T07:51:39;97414.25;;;5.92;82.02
59063;BME280;44851;45.648;9.004;2024-01-06T07:54:04;97418.31;;;5.94;82.24
59063;BME280;44851;45.648;9.004;2024-01-06T07:56:31;97425.09;;;5.95;81.68
59063;BME280;44851;45.648;9.004;2024-01-06T07:58:57;97412.97;;;5.96;81.88
59063;BME280;44851;45.648;9.004;2024-01-06T08:01:22;97424.81;;;5.98;82.29
59063;BME280;44851;45.648;9.004;2024-01-06T08:03:47;97419.66;;;5.98;82.41
59063;BME280;44851;45.648;9.004;2024-01-06T08:06:13;97423.03;;;5.99;81.83
59063;BME280;44851;45.648;9.004;2024-01-06T08:08:38;97417.72;;;6.00;81.66
59063;BME280;44851;45.648;9.004;2024-01-06T08:11:03;97424.00;;;5.98;81.25
59063;BME280;44851;45.648;9.004;2024-01-06T08:13:29;97425.78;;;5.97;81.73
59063;BME280;44851;45.648;9.004;2024-01-06T08:15:54;97436.78;;;5.99;81.15
59063;BME280;44851;45.648;9.004;2024-01-06T08:18:20;97434.78;;;5.93;81.53
59063;BME280;44851;45.648;9.004;2024-01-06T08:20:46;97440.97;;;6.00;81.97
59063;BME280;44851;45.648;9.004;2024-01-06T08:23:12;97444.16;;;5.94;81.53
59063;BME280;44851;45.648;9.004;2024-01-06T08:25:37;97439.38;;;5.99;81.98
59063;BME280;44851;45.648;9.004;2024-01-06T08:28:03;97439.22;;;6.01;81.59
59063;BME280;44851;45.648;9.004;2024-01-06T08:30:28;97437.31;;;6.03;81.88
59063;BME280;44851;45.648;9.004;2024-01-06T08:32:53;97431.31;;;6.02;82.27
59063;BME280;44851;45.648;9.004;2024-01-06T08:35:19;97435.66;;;6.02;82.34
59063;BME280;44851;45.648;9.004;2024-01-06T08:37:45;97440.38;;;6.06;82.22
59063;BME280;44851;45.648;9.004;2024-01-06T08:40:10;97442.69;;;6.09;82.08
59063;BME280;44851;45.648;9.004;2024-01-06T08:42:36;97435.09;;;6.08;82.12
59063;BME280;44851;45.648;9.004;2024-01-06T08:45:01;97435.56;;;6.11;82.06
59063;BME280;44851;45.648;9.004;2024-01-06T08:47:27;97438.84;;;6.13;81.74
59063;BME280;44851;45.648;9.004;2024-01-06T08:49:53;97438.25;;;6.20;82.38
59063;BME280;44851;45.648;9.004;2024-01-06T08:52:18;97434.16;;;6.17;82.29
59063;BME280;44851;45.648;9.004;2024-01-06T08:54:44;97433.88;;;6.20;82.48
59063;BME280;44851;45.648;9.004;2024-01-06T08:57:09;97437.94;;;6.23;82.52
59063;BME280;44851;45.648;9.004;2024-01-06T08:59:35;97437.31;;;6.29;81.61
59063;BME280;44851;45.648;9.004;2024-01-06T09:02:00;97439.25;;;6.27;82.14
59063;BME280;44851;45.648;9.004;2024-01-06T09:04:26;97438.44;;;6.26;82.02
59063;BME280;44851;45.648;9.004;2024-01-06T09:06:51;97446.06;;;6.28;82.45
59063;BME280;44851;45.648;9.004;2024-01-06T09:09:17;97445.09;;;6.29;82.66
59063;BME280;44851;45.648;9.004;2024-01-06T09:11:42;97454.53;;;6.38;82.14
59063;BME280;44851;45.648;9.004;2024-01-06T09:14:09;97449.38;;;6.38;81.84
59063;BME280;44851;45.648;9.004;2024-01-06T09:16:37;97461.81;;;6.34;81.98
59063;BME280;44851;45.648;9.004;2024-01-06T09:19:03;97455.50;;;6.37;81.95
59063;BME280;44851;45.648;9.004;2024-01-06T09:21:28;97458.63;;;6.40;82.44
59063;BME280;44851;45.648;9.004;2024-01-06T09:23:53;97460.41;;;6.40;82.22
59063;BME280;44851;45.648;9.004;2024-01-06T09:26:19;97455.59;;;6.45;82.43
59063;BME280;44851;45.648;9.004;2024-01-06T09:28:44;97453.63;;;6.47;82.38
59063;BME280;44851;45.648;9.004;2024-01-06T09:31:10;97455.09;;;6.50;82.36
59063;BME280;44851;45.648;9.004;2024-01-06T09:33:35;97458.84;;;6.55;82.68
59063;BME280;44851;45.648;9.004;2024-01-06T09:36:01;97456.94;;;6.57;82.38
59063;BME280;44851;45.648;9.004;2024-01-06T09:38:27;97461.16;;;6.58;82.41
59063;BME280;44851;45.648;9.004;2024-01-06T09:40:53;97465.78;;;6.47;81.89
59063;BME280;44851;45.648;9.004;2024-01-06T09:43:19;97472.75;;;6.54;81.78
59063;BME280;44851;45.648;9.004;2024-01-06T09:45:48;97472.47;;;6.57;82.15
59063;BME280;44851;45.648;9.004;2024-01-06T09:48:20;97473.56;;;6.55;81.83
59063;BME280;44851;45.648;9.004;2024-01-06T09:50:45;97476.03;;;6.56;82.59
59063;BME280;44851;45.648;9.004;2024-01-06T09:53:12;97474.09;;;6.58;82.27
59063;BME280;44851;45.648;9.004;2024-01-06T09:55:38;97474.09;;;6.58;82.02
59063;BME280;44851;45.648;9.004;2024-01-06T09:58:04;97473.47;;;6.64;82.50
59063;BME280;44851;45.648;9.004;2024-01-06T10:00:31;97466.97;;;6.60;82.51
59063;BME280;44851;45.648;9.004;2024-01-06T10:02:57;97470.25;;;6.62;82.58
59063;BME280;44851;45.648;9.004;2024-01-06T10:05:23;97464.91;;;6.64;82.32
59063;BME280;44851;45.648;9.004;2024-01-06T10:07:49;97461.31;;;6.57;82.25
59063;BME280;44851;45.648;9.004;2024-01-06T10:10:15;97455.00;;;6.59;82.33
59063;BME280;44851;45.648;9.004;2024-01-06T10:12:41;97444.16;;;6.56;81.03
59063;BME280;44851;45.648;9.004;2024-01-06T10:15:08;97435.34;;;6.66;82.06
59063;BME280;44851;45.648;9.004;2024-01-06T10:17:41;97426.16;;;6.80;82.10
59063;BME280;44851;45.648;9.004;2024-01-06T10:20:09;97420.72;;;6.91;81.62
59063;BME280;44851;45.648;9.004;2024-01-06T10:22:38;97418.00;;;6.93;81.54
59063;BME280;44851;45.648;9.004;2024-01-06T10:25:09;97407.75;;;6.91;81.70
59063;BME280;44851;45.648;9.004;2024-01-06T10:27:39;97412.31;;;6.98;81.89
59063;BME280;44851;45.648;9.004;2024-01-06T10:30:06;97412.19;;;6.99;81.61
59063;BME280;44851;45.648;9.004;2024-01-06T10:32:35;97414.09;;;6.97;80.89
59063;BME280;44851;45.648;9.004;2024-01-06T10:35:01;97404.25;;;7.01;81.55
59063;BME280;44851;45.648;9.004;2024-01-06T10:37:28;97404.91;;;7.03;81.85
59063;BME280;44851;45.648;9.004;2024-01-06T10:40:09;97419.63;;;7.02;81.38
59063;BME280;44851;45.648;9.004;2024-01-06T10:42:36;97412.88;;;7.09;82.11
59063;BME280;44851;45.648;9.004;2024-01-06T10:45:02;97419.00;;;7.08;81.80
59063;BME280;44851;45.648;9.004;2024-01-06T10:47:29;97416.41;;;7.08;81.34
59063;BME280;44851;45.648;9.004;2024-01-06T10:49:59;97413.19;;;7.06;81.51
59063;BME280;44851;45.648;9.004;2024-01-06T10:52:27;97413.00;;;7.08;81.33
59063;BME280;44851;45.648;9.004;2024-01-06T10:54:53;97406.38;;;7.05;80.87
59063;BME280;44851;45.648;9.004;2024-01-06T10:57:20;97405.25;;;7.08;81.47
59063;BME280;44851;45.648;9.004;2024-01-06T10:59:49;97398.59;;;7.05;80.90
59063;BME280;44851;45.648;9.004;2024-01-06T11:02:15;97391.19;;;7.10;81.18
59063;BME280;44851;45.648;9.004;2024-01-06T11:04:43;97390.19;;;7.11;80.39
59063;BME280;44851;45.648;9.004;2024-01-06T11:07:09;97391.06;;;7.20;81.01
59063;BME280;44851;45.648;9.004;2024-01-06T11:09:37;97387.97;;;7.25;81.31
59063;BME280;44851;45.648;9.004;2024-01-06T11:12:05;97385.06;;;7.19;80.60
59063;BME280;44851;45.648;9.004;2024-01-06T11:14:36;97369.81;;;7.16;80.53
59063;BME280;44851;45.648;9.004;2024-01-06T11:17:02;97368.19;;;7.15;80.27
59063;BME280;44851;45.648;9.004;2024-01-06T11:22:27;97356.53;;;7.11;79.16
59063;BME280;44851;45.648;9.004;2024-01-06T11:25:13;97358.47;;;7.17;80.50
59063;BME280;44851;45.648;9.004;2024-01-06T11:27:39;97357.19;;;7.21;81.23
59063;BME280;44851;45.648;9.004;2024-01-06T11:30:07;97359.75;;;7.13;80.89
59063;BME280;44851;45.648;9.004;2024-01-06T11:32:35;97353.97;;;7.19;81.04
59063;BME280;44851;45.648;9.004;2024-01-06T11:35:09;97347.59;;;7.06;80.81
59063;BME280;44851;45.648;9.004;2024-01-06T11:42:46;97335.16;;;7.17;80.70
59063;BME280;44851;45.648;9.004;2024-01-06T11:45:12;97323.84;;;7.27;81.75
59063;BME280;44851;45.648;9.004;2024-01-06T11:47:38;97323.50;;;7.30;81.51
59063;BME280;44851;45.648;9.004;2024-01-06T11:50:04;97322.56;;;7.31;81.02
59063;BME280;44851;45.648;9.004;2024-01-06T11:52:34;97326.94;;;7.30;80.50
59063;BME280;44851;45.648;9.004;2024-01-06T11:55:00;97324.50;;;7.37;80.92
59063;BME280;44851;45.648;9.004;2024-01-06T11:57:26;97316.88;;;7.35;80.63
59063;BME280;44851;45.648;9.004;2024-01-06T11:59:52;97309.59;;;7.31;79.70
59063;BME280;44851;45.648;9.004;2024-01-06T12:02:18;97316.06;;;7.35;80.04
59063;BME280;44851;45.648;9.004;2024-01-06T12:04:51;97317.22;;;7.32;79.55
59063;BME280;44851;45.648;9.004;2024-01-06T12:07:17;97301.97;;;7.29;80.28
59063;BME280;44851;45.648;9.004;2024-01-06T12:09:42;97308.28;;;7.35;80.50
59063;BME280;44851;45.648;9.004;2024-01-06T12:12:08;97308.31;;;7.43;81.43
59063;BME280;44851;45.648;9.004;2024-01-06T12:14:36;97289.50;;;7.33;80.08
59063;BME280;44851;45.648;9.004;2024-01-06T12:17:01;97299.22;;;7.39;80.32
59063;BME280;44851;45.648;9.004;2024-01-06T12:19:31;97285.78;;;7.35;79.83
59063;BME280;44851;45.648;9.004;2024-01-06T12:21:56;97278.16;;;7.34;80.21
59063;BME280;44851;45.648;9.004;2024-01-06T12:24:22;97281.09;;;7.31;79.49
59063;BME280;44851;45.648;9.004;2024-01-06T12:26:47;97290.50;;;7.32;79.57
59063;BME280;44851;45.648;9.004;2024-01-06T12:29:14;97284.97;;;7.35;80.23
59063;BME280;44851;45.648;9.004;2024-01-06T12:31:40;97277.22;;;7.43;80.30
59063;BME280;44851;45.648;9.004;2024-01-06T12:34:06;97276.56;;;7.41;80.02
59063;BME280;44851;45.648;9.004;2024-01-06T12:36:36;97275.25;;;7.45;80.27
59063;BME280;44851;45.648;9.004;2024-01-06T12:39:03;97271.38;;;7.49;81.20
59063;BME280;44851;45.648;9.004;2024-01-06T12:41:28;97265.22;;;7.42;80.08
59063;BME280;44851;45.648;9.004;2024-01-06T12:43:53;97266.84;;;7.43;80.65
59063;BME280;44851;45.648;9.004;2024-01-06T12:46:19;97260.34;;;7.39;80.55
59063;BME280;44851;45.648;9.004;2024-01-06T12:48:44;97258.09;;;7.44;81.35
59063;BME280;44851;45.648;9.004;2024-01-06T12:51:10;97254.53;;;7.45;81.20
59063;BME280;44851;45.648;9.004;2024-01-06T12:53:35;97251.59;;;7.40;80.98
59063;BME280;44851;45.648;9.004;2024-01-06T12:56:01;97242.22;;;7.47;81.52
59063;BME280;44851;45.648;9.004;2024-01-06T12:58:26;97248.69;;;7.43;81.28
59063;BME280;44851;45.648;9.004;2024-01-06T13:00:51;97242.88;;;7.41;81.69
59063;BME280;44851;45.648;9.004;2024-01-06T13:03:17;97242.53;;;7.44;81.74
59063;BME280;44851;45.648;9.004;2024-01-06T13:05:44;97242.72;;;7.42;81.58
59063;BME280;44851;45.648;9.004;2024-01-06T13:08:09;97241.06;;;7.50;82.38
59063;BME280;44851;45.648;9.004;2024-01-06T13:10:35;97240.13;;;7.42;82.08